createdAt,value
2023-05-02T00:00:59.033Z,24.55
2023-05-02T00:03:26.386Z,22.38
2023-05-02T00:05:53.030Z,27.67
2023-05-02T00:08:19.667Z,24.42
2023-05-02T00:10:46.993Z,28.17
2023-05-02T00:13:13.580Z,23.65
2023-05-02T00:15:40.159Z,28.02
2023-05-02T00:18:06.759Z,27.55
2023-05-02T00:20:33.359Z,26.45
2023-05-02T00:22:59.900Z,28.20
2023-05-02T00:25:26.762Z,33.03
2023-05-02T00:27:53.362Z,27.08
2023-05-02T00:30:21.219Z,30.52
2023-05-02T00:32:47.859Z,28.92
2023-05-02T00:35:14.609Z,28.27
2023-05-02T00:37:41.270Z,33.20
2023-05-02T00:40:08.371Z,32.88
2023-05-02T00:42:36.290Z,34.50
2023-05-02T00:45:06.465Z,32.30
2023-05-02T00:47:33.658Z,31.67
2023-05-02T00:50:01.409Z,32.22
2023-05-02T00:52:29.064Z,33.13
2023-05-02T00:54:55.975Z,33.75
2023-05-02T00:57:22.932Z,36.03
2023-05-02T00:59:50.292Z,36.97
2023-05-02T01:02:30.784Z,41.40
2023-05-02T01:05:03.350Z,41.63
2023-05-02T01:07:32.675Z,38.03
2023-05-02T01:10:20.812Z,43.40
2023-05-02T01:12:58.488Z,38.33
2023-05-02T01:15:25.631Z,43.60
2023-05-02T01:17:55.155Z,41.95
2023-05-02T01:20:26.468Z,46.72
2023-05-02T01:22:56.079Z,43.95
2023-05-02T01:25:56.761Z,44.97
2023-05-02T01:28:35.970Z,44.58
2023-05-02T01:31:06.046Z,49.03
2023-05-02T01:33:35.358Z,48.88
2023-05-02T01:36:03.221Z,44.70
2023-05-02T01:38:30.311Z,45.80
2023-05-02T01:40:57.855Z,43.75
2023-05-02T01:43:26.038Z,47.10
2023-05-02T01:45:57.144Z,43.28
2023-05-02T01:48:25.361Z,49.27
2023-05-02T01:50:52.392Z,47.47
2023-05-02T01:53:19.365Z,45.00
2023-05-02T01:55:47.800Z,46.90
2023-05-02T01:58:17.156Z,44.30
2023-05-02T02:00:45.632Z,47.72
2023-05-02T02:03:13.937Z,47.45
2023-05-02T02:05:41.722Z,46.35
2023-05-02T02:08:08.751Z,44.15
2023-05-02T02:10:45.257Z,45.80
2023-05-02T02:13:28.104Z,47.25
2023-05-02T02:16:01.240Z,45.75
2023-05-02T02:18:29.357Z,42.30
2023-05-02T02:20:58.972Z,45.95
2023-05-02T02:23:28.252Z,40.70
2023-05-02T02:25:57.044Z,39.45
2023-05-02T02:28:23.796Z,43.40
2023-05-02T02:30:50.486Z,40.22
2023-05-02T02:33:17.931Z,39.85
2023-05-02T02:35:52.811Z,38.38
2023-05-02T02:38:51.305Z,40.92
2023-05-02T02:41:31.992Z,35.90
2023-05-02T02:44:06.121Z,42.45
2023-05-02T02:46:54.825Z,38.15
2023-05-02T02:49:30.381Z,44.78
2023-05-02T02:52:11.187Z,41.70
2023-05-02T02:54:46.834Z,42.90
2023-05-02T02:57:24.034Z,40.78
2023-05-02T03:00:11.923Z,41.25
2023-05-02T03:02:41.665Z,38.20
2023-05-02T03:05:10.651Z,37.75
2023-05-02T03:07:37.207Z,43.70
2023-05-02T03:10:05.194Z,40.85
2023-05-02T03:12:32.103Z,45.58
2023-05-02T03:15:25.515Z,43.70
2023-05-02T03:17:52.202Z,43.92
2023-05-02T03:20:19.221Z,38.03
2023-05-02T03:22:46.075Z,43.45
2023-05-02T03:25:12.751Z,37.95
2023-05-02T03:27:39.276Z,43.67
2023-05-02T03:30:06.895Z,47.78
2023-05-02T03:32:33.454Z,47.55
2023-05-02T03:35:00.280Z,51.05
2023-05-02T03:37:26.908Z,48.28
2023-05-02T03:39:53.468Z,46.58
2023-05-02T03:42:19.995Z,56.17
2023-05-02T03:44:46.533Z,52.17
2023-05-02T03:47:13.889Z,52.33
2023-05-02T03:49:40.521Z,49.83
2023-05-02T03:52:07.111Z,48.92
2023-05-02T03:54:33.896Z,45.47
2023-05-02T03:57:01.059Z,43.63
2023-05-02T03:59:27.617Z,39.65
2023-05-02T04:01:54.158Z,41.05
2023-05-02T04:04:20.818Z,43.63
2023-05-02T04:06:47.517Z,41.83
2023-05-02T04:09:14.162Z,41.97
2023-05-02T04:11:42.043Z,46.67
2023-05-02T04:14:08.720Z,48.70
2023-05-02T04:16:35.311Z,45.28
2023-05-02T04:19:01.896Z,47.03
2023-05-02T04:21:28.661Z,51.47
2023-05-02T04:23:55.210Z,51.25
2023-05-02T04:26:21.809Z,52.42
2023-05-02T04:28:48.380Z,46.58
2023-05-02T04:31:15.187Z,50.83
2023-05-02T04:33:41.859Z,46.13
2023-05-02T04:36:10.480Z,47.47
2023-05-02T04:38:37.015Z,40.30
2023-05-02T04:41:08.496Z,48.00
2023-05-02T04:43:36.009Z,47.50
2023-05-02T04:46:03.011Z,50.85
2023-05-02T04:48:29.928Z,50.25
2023-05-02T04:50:56.547Z,42.53
2023-05-02T04:53:23.963Z,44.80
2023-05-02T04:55:50.582Z,34.72
2023-05-02T04:58:17.598Z,38.35
2023-05-02T05:00:44.425Z,38.17
2023-05-02T05:03:11.031Z,33.72
2023-05-02T05:05:37.992Z,35.20
2023-05-02T05:08:04.670Z,29.30
2023-05-02T05:10:31.312Z,32.63
2023-05-02T05:12:57.910Z,35.90
2023-05-02T05:15:26.003Z,33.78
2023-05-02T05:17:52.712Z,32.90
2023-05-02T05:20:19.897Z,35.00
2023-05-02T05:22:46.641Z,40.88
2023-05-02T05:25:13.202Z,32.95
2023-05-02T05:27:39.829Z,35.38
2023-05-02T05:30:07.078Z,35.92
2023-05-02T05:32:34.026Z,30.05
2023-05-02T05:35:01.392Z,30.10
2023-05-02T05:37:28.104Z,27.45
2023-05-02T05:39:54.687Z,30.58
2023-05-02T05:42:21.186Z,29.33
2023-05-02T05:44:47.691Z,31.48
2023-05-02T05:47:19.783Z,30.73
2023-05-02T05:49:46.331Z,39.30
2023-05-02T05:52:12.879Z,33.17
2023-05-02T05:54:39.485Z,38.08
2023-05-02T05:57:06.037Z,31.42
2023-05-02T05:59:36.243Z,32.58
2023-05-02T06:02:04.136Z,32.20
2023-05-02T06:04:30.906Z,31.67
2023-05-02T06:06:57.516Z,32.38
2023-05-02T06:09:24.200Z,34.58
2023-05-02T06:11:50.779Z,30.77
2023-05-02T06:14:17.354Z,34.45
2023-05-02T06:16:44.026Z,33.40
2023-05-02T06:19:10.590Z,32.97
2023-05-02T06:21:37.992Z,35.50
2023-05-02T06:24:04.942Z,29.38
2023-05-02T06:26:31.511Z,33.05
2023-05-02T06:28:58.048Z,37.42
2023-05-02T06:31:24.778Z,28.70
2023-05-02T06:33:52.374Z,30.35
2023-05-02T06:36:18.906Z,29.05
2023-05-02T06:38:45.521Z,31.05
2023-05-02T06:41:17.882Z,30.30
2023-05-02T06:43:44.895Z,33.45
2023-05-02T06:46:11.441Z,26.95
2023-05-02T06:48:38.144Z,35.47
2023-05-02T06:51:04.730Z,31.00
2023-05-02T06:53:33.023Z,35.33
2023-05-02T06:56:00.013Z,28.95
2023-05-02T06:58:26.629Z,34.90
2023-05-02T07:00:53.339Z,29.73
2023-05-02T07:03:19.881Z,35.25
2023-05-02T07:05:46.416Z,37.78
2023-05-02T07:08:12.952Z,36.75
2023-05-02T07:10:39.539Z,25.15
2023-05-02T07:13:06.089Z,26.25
2023-05-02T07:15:32.694Z,24.77
2023-05-02T07:17:59.359Z,31.00
2023-05-02T07:20:26.126Z,27.85
2023-05-02T07:22:52.728Z,24.42
2023-05-02T07:25:19.356Z,39.63
2023-05-02T07:27:46.002Z,29.10
2023-05-02T07:30:13.231Z,28.40
2023-05-02T07:32:39.921Z,20.27
2023-05-02T07:35:07.344Z,28.60
2023-05-02T07:37:35.353Z,23.52
2023-05-02T07:40:02.516Z,24.85
2023-05-02T07:42:30.480Z,20.98
2023-05-02T07:44:57.157Z,29.40
2023-05-02T07:47:23.816Z,26.77
2023-05-02T07:49:54.299Z,28.30
2023-05-02T07:52:20.946Z,21.83
2023-05-02T07:54:51.658Z,20.15
2023-05-02T07:57:19.087Z,18.92
2023-05-02T07:59:45.822Z,20.58
2023-05-02T08:02:13.873Z,19.52
2023-05-02T08:04:41.369Z,21.33
2023-05-02T08:07:07.990Z,21.60
2023-05-02T08:09:34.687Z,15.27
2023-05-02T08:12:03.432Z,20.88
2023-05-02T08:14:30.104Z,16.58
2023-05-02T08:16:56.649Z,11.43
2023-05-02T08:19:23.217Z,19.50
2023-05-02T08:21:49.842Z,13.40
2023-05-02T08:24:16.387Z,13.35
2023-05-02T08:26:43.004Z,18.23
2023-05-02T08:29:11.811Z,16.38
2023-05-02T08:31:40.355Z,18.63
2023-05-02T08:34:07.143Z,19.05
2023-05-02T08:36:33.989Z,14.85
2023-05-02T08:39:00.561Z,12.85
2023-05-02T08:41:29.269Z,17.77
2023-05-02T08:43:56.529Z,12.43
2023-05-02T08:46:23.914Z,17.70
2023-05-02T08:48:51.288Z,12.75
2023-05-02T08:53:46.571Z,11.45
2023-05-02T08:56:13.186Z,17.13
2023-05-02T08:58:41.005Z,13.70
2023-05-02T09:01:15.247Z,10.75
2023-05-02T09:03:43.972Z,9.30
2023-05-02T09:06:16.345Z,14.02
2023-05-02T09:08:44.857Z,11.23
2023-05-02T09:11:13.191Z,8.43
2023-05-02T09:13:42.265Z,10.80
2023-05-02T09:16:13.034Z,12.77
2023-05-02T09:18:44.821Z,12.13
2023-05-02T09:21:19.748Z,12.13
2023-05-02T09:23:52.005Z,9.27
2023-05-02T09:26:24.130Z,9.07
2023-05-02T09:28:53.188Z,10.20
2023-05-02T09:31:43.503Z,14.10
2023-05-02T09:34:12.682Z,11.20
2023-05-02T09:36:47.584Z,10.38
2023-05-02T09:39:16.308Z,9.80
2023-05-02T09:41:47.115Z,10.95
2023-05-02T09:44:37.687Z,8.13
2023-05-02T09:47:04.289Z,11.05
2023-05-02T09:49:41.131Z,9.70
2023-05-02T09:52:15.479Z,8.23
2023-05-02T09:54:42.621Z,10.95
2023-05-02T09:57:10.929Z,11.15
2023-05-02T09:59:39.605Z,7.50
2023-05-02T10:02:09.640Z,9.45
2023-05-02T10:04:36.906Z,11.05
2023-05-02T10:07:05.141Z,8.10
2023-05-02T10:09:35.353Z,7.88
2023-05-02T10:12:05.204Z,9.48
2023-05-02T10:14:36.105Z,8.50
2023-05-02T10:17:12.553Z,8.35
2023-05-02T10:19:51.846Z,12.05
2023-05-02T10:22:19.896Z,9.82
2023-05-02T10:24:49.131Z,12.90
2023-05-02T10:27:16.017Z,11.63
2023-05-02T10:29:42.923Z,18.80
2023-05-02T10:32:10.922Z,8.65
2023-05-02T10:34:40.705Z,13.65
2023-05-02T10:37:07.338Z,10.00
2023-05-02T10:39:34.107Z,8.50
2023-05-02T10:42:03.655Z,9.43
2023-05-02T10:44:41.194Z,8.20
2023-05-02T10:47:27.402Z,7.78
2023-05-02T10:49:55.186Z,7.60
2023-05-02T10:52:31.732Z,8.32
2023-05-02T10:55:15.555Z,14.43
2023-05-02T10:57:57.312Z,7.85
2023-05-02T11:00:26.236Z,10.00
2023-05-02T11:02:52.931Z,9.60
2023-05-02T11:05:19.725Z,6.70
2023-05-02T11:07:46.581Z,7.43
2023-05-02T11:10:20.288Z,8.13
2023-05-02T11:12:47.899Z,8.27
2023-05-02T11:15:34.781Z,7.00
2023-05-02T11:18:08.348Z,7.68
2023-05-02T11:20:39.691Z,7.22
2023-05-02T11:23:16.952Z,9.57
2023-05-02T11:25:56.977Z,11.55
2023-05-02T11:28:38.653Z,10.55
2023-05-02T11:31:07.170Z,7.47
2023-05-02T11:33:33.783Z,8.63
2023-05-02T11:36:00.575Z,9.43
2023-05-02T11:38:36.565Z,11.35
2023-05-02T11:41:04.286Z,11.23
2023-05-02T11:43:32.247Z,12.60
2023-05-02T11:46:02.298Z,5.95
2023-05-02T11:48:30.706Z,6.82
2023-05-02T11:50:59.479Z,10.23
2023-05-02T11:53:29.601Z,6.20
2023-05-02T11:55:58.164Z,12.38
2023-05-02T11:58:30.075Z,8.18
2023-05-02T12:03:32.318Z,6.68
2023-05-02T12:06:11.608Z,9.18
2023-05-02T12:08:39.154Z,5.43
2023-05-02T12:11:06.797Z,6.63
2023-05-02T12:13:33.943Z,6.38
2023-05-02T12:16:01.147Z,5.82
2023-05-02T12:18:28.068Z,9.07
2023-05-02T12:20:56.621Z,12.02
2023-05-02T12:23:26.378Z,6.00
2023-05-02T12:25:53.134Z,6.97
2023-05-02T12:28:20.669Z,5.22
2023-05-02T12:30:49.678Z,7.90
2023-05-02T12:33:17.415Z,8.38
2023-05-02T12:35:48.101Z,10.38
2023-05-02T12:38:22.821Z,8.82
2023-05-02T12:40:54.158Z,5.97
2023-05-02T12:43:22.171Z,7.88
2023-05-02T12:45:49.617Z,5.47
2023-05-02T12:48:25.199Z,12.57
2023-05-02T12:50:53.613Z,8.82
2023-05-02T12:53:40.710Z,10.50
2023-05-02T12:56:08.288Z,6.88
2023-05-02T12:58:45.000Z,7.32
2023-05-02T13:01:12.556Z,4.47
2023-05-02T13:03:39.365Z,6.03
2023-05-02T13:06:06.457Z,6.75
2023-05-02T13:08:34.218Z,10.85
2023-05-02T13:11:01.832Z,6.88
2023-05-02T13:13:28.956Z,7.40
2023-05-02T13:15:55.680Z,12.60
2023-05-02T13:18:22.275Z,14.40
2023-05-02T13:20:48.925Z,6.55
2023-05-02T13:23:16.961Z,6.50
2023-05-02T13:25:43.661Z,9.48
2023-05-02T13:28:10.381Z,5.80
2023-05-02T13:30:36.965Z,7.50
2023-05-02T13:33:03.692Z,4.90
2023-05-02T13:35:31.087Z,4.93
2023-05-02T13:37:58.779Z,7.50
2023-05-02T13:40:25.370Z,6.65
2023-05-02T13:42:51.920Z,5.88
2023-05-02T13:45:18.638Z,6.38
2023-05-02T13:47:45.206Z,5.40
2023-05-02T13:50:12.498Z,6.10
2023-05-02T13:52:39.243Z,4.90
2023-05-02T13:55:06.817Z,9.75
2023-05-02T13:57:33.483Z,6.65
2023-05-02T14:00:00.497Z,11.10
2023-05-02T14:02:27.646Z,6.32
2023-05-02T14:04:54.319Z,7.78
2023-05-02T14:07:20.904Z,5.25
2023-05-02T14:09:47.473Z,8.90
2023-05-02T14:12:14.025Z,6.80
2023-05-02T14:14:40.596Z,5.35
2023-05-02T14:17:07.201Z,5.55
2023-05-02T14:19:33.960Z,7.13
2023-05-02T14:22:00.624Z,5.00
2023-05-02T14:24:27.163Z,6.55
2023-05-02T14:26:53.764Z,6.82
2023-05-02T14:29:20.534Z,5.07
2023-05-02T14:31:47.305Z,7.50
2023-05-02T14:34:14.050Z,3.83
2023-05-02T14:36:40.628Z,6.13
2023-05-02T14:39:07.426Z,6.97
2023-05-02T14:41:33.960Z,5.10
2023-05-02T14:44:00.541Z,6.53
2023-05-02T14:46:27.151Z,8.88
2023-05-02T14:48:53.735Z,5.82
2023-05-02T14:51:20.356Z,5.70
2023-05-02T14:53:48.450Z,6.43
2023-05-02T14:56:17.189Z,7.18
2023-05-02T14:58:43.892Z,4.05
2023-05-02T15:01:18.539Z,8.20
2023-05-02T15:06:33.212Z,5.70
2023-05-02T15:08:59.952Z,5.10
2023-05-02T15:11:26.791Z,4.25
2023-05-02T15:13:53.299Z,6.10
2023-05-02T15:16:19.923Z,7.55
2023-05-02T15:18:46.569Z,3.75
2023-05-02T15:21:13.158Z,11.70
2023-05-02T15:23:39.840Z,6.47
2023-05-02T15:26:06.700Z,7.03
2023-05-02T15:28:33.293Z,5.05
2023-05-02T15:30:59.851Z,5.03
2023-05-02T15:33:26.382Z,3.40
2023-05-02T15:35:58.380Z,3.92
2023-05-02T15:38:25.907Z,3.28
2023-05-02T15:41:01.617Z,4.75
2023-05-02T15:43:28.283Z,2.83
2023-05-02T15:45:56.795Z,4.57
2023-05-02T15:48:26.899Z,5.25
2023-05-02T15:50:53.797Z,3.70
2023-05-02T15:53:23.067Z,3.72
2023-05-02T15:55:51.186Z,6.95
2023-05-02T15:58:19.755Z,4.13
2023-05-02T16:00:51.874Z,5.13
2023-05-02T16:03:18.499Z,3.42
2023-05-02T16:05:45.094Z,2.65
2023-05-02T16:08:11.679Z,3.58
2023-05-02T16:10:40.319Z,2.03
2023-05-02T16:13:06.960Z,3.63
2023-05-02T16:15:33.657Z,5.97
2023-05-02T16:18:00.271Z,3.90
2023-05-02T16:20:28.423Z,2.88
2023-05-02T16:22:55.350Z,6.78
2023-05-02T16:25:22.179Z,6.10
2023-05-02T16:27:48.879Z,4.03
2023-05-02T16:30:15.799Z,3.53
2023-05-02T16:32:42.400Z,4.00
2023-05-02T16:35:12.384Z,3.40
2023-05-02T16:37:41.072Z,4.20
2023-05-02T16:40:08.928Z,3.88
2023-05-02T16:42:35.781Z,5.00
2023-05-02T16:45:02.466Z,4.32
2023-05-02T16:47:29.137Z,3.88
2023-05-02T16:49:56.693Z,4.20
2023-05-02T16:52:23.840Z,2.40
2023-05-02T16:54:50.964Z,7.90
2023-05-02T16:57:21.342Z,3.53
2023-05-02T16:59:49.608Z,1.98
2023-05-02T17:02:16.880Z,2.55
2023-05-02T17:04:43.895Z,2.33
2023-05-02T17:07:13.753Z,2.78
2023-05-02T17:09:41.856Z,6.80
2023-05-02T17:12:10.768Z,3.13
2023-05-02T17:14:39.537Z,5.82
2023-05-02T17:17:06.110Z,4.65
2023-05-02T17:19:32.677Z,5.40
2023-05-02T17:21:59.814Z,6.18
2023-05-02T17:24:26.553Z,6.20
2023-05-02T17:26:53.144Z,3.42
2023-05-02T17:29:19.916Z,5.22
2023-05-02T17:31:46.718Z,5.82
2023-05-02T17:34:13.278Z,2.75
2023-05-02T17:36:43.604Z,4.68
2023-05-02T17:39:11.570Z,1.92
2023-05-02T17:41:38.305Z,4.80
2023-05-02T17:44:05.112Z,4.38
2023-05-02T17:46:32.744Z,4.38
2023-05-02T17:49:00.782Z,3.08
2023-05-02T17:51:28.007Z,5.88
2023-05-02T17:53:54.820Z,4.35
2023-05-02T17:56:21.435Z,4.93
2023-05-02T17:58:48.073Z,5.82
2023-05-02T18:01:14.657Z,5.85
2023-05-02T18:03:41.794Z,9.40
2023-05-02T18:06:08.999Z,5.15
2023-05-02T18:08:35.876Z,2.85
2023-05-02T18:11:03.501Z,4.30
2023-05-02T18:13:30.208Z,2.30
2023-05-02T18:15:57.329Z,5.57
2023-05-02T18:18:24.089Z,5.65
2023-05-02T18:20:50.861Z,4.18
2023-05-02T18:23:17.444Z,4.45
2023-05-02T18:25:44.302Z,4.10
2023-05-02T18:28:11.654Z,4.85
2023-05-02T18:30:38.474Z,6.45
2023-05-02T18:33:06.620Z,6.95
2023-05-02T18:35:33.349Z,3.92
2023-05-02T18:37:59.923Z,9.98
2023-05-02T18:40:26.545Z,4.93
2023-05-02T18:42:53.172Z,7.28
2023-05-02T18:45:19.754Z,5.57
2023-05-02T18:47:46.460Z,2.63
2023-05-02T18:50:13.022Z,6.85
2023-05-02T18:52:39.814Z,4.60
2023-05-02T18:55:06.836Z,9.18
2023-05-02T18:57:36.084Z,4.75
2023-05-02T19:00:06.414Z,6.65
2023-05-02T19:02:33.652Z,6.78
2023-05-02T19:05:00.739Z,8.18
2023-05-02T19:07:27.921Z,6.20
2023-05-02T19:09:54.513Z,8.43
2023-05-02T19:12:21.060Z,6.25
2023-05-02T19:14:47.972Z,5.18
2023-05-02T19:17:14.576Z,5.10
2023-05-02T19:19:41.782Z,4.05
2023-05-02T19:22:08.464Z,14.52
2023-05-02T19:24:36.083Z,9.40
2023-05-02T19:27:06.766Z,6.65
2023-05-02T19:29:34.404Z,5.90
2023-05-02T19:32:01.142Z,6.95
2023-05-02T19:34:28.274Z,8.40
2023-05-02T19:36:55.062Z,11.95
2023-05-02T19:39:21.627Z,8.20
2023-05-02T19:41:49.968Z,6.28
2023-05-02T19:44:18.120Z,4.38
2023-05-02T19:46:44.674Z,6.63
2023-05-02T19:49:11.207Z,4.78
2023-05-02T19:51:37.735Z,4.18
2023-05-02T19:54:04.426Z,10.27
2023-05-02T19:56:30.964Z,4.40
2023-05-02T19:58:58.786Z,6.47
2023-05-02T20:01:26.948Z,5.38
2023-05-02T20:03:53.708Z,6.68
2023-05-02T20:06:20.457Z,7.35
2023-05-02T20:08:47.012Z,12.25
2023-05-02T20:11:13.527Z,8.77
2023-05-02T20:13:40.184Z,14.13
2023-05-02T20:16:07.477Z,6.32
2023-05-02T20:18:34.161Z,6.00
2023-05-02T20:21:00.815Z,6.82
2023-05-02T20:23:27.367Z,11.88
2023-05-02T20:25:53.901Z,9.93
2023-05-02T20:28:20.538Z,6.47
2023-05-02T20:30:47.104Z,8.00
2023-05-02T20:33:16.681Z,8.93
2023-05-02T20:35:45.510Z,10.07
2023-05-02T20:38:12.350Z,10.10
2023-05-02T20:40:40.692Z,6.50
2023-05-02T20:43:08.851Z,6.93
2023-05-02T20:45:35.448Z,7.47
2023-05-02T20:48:02.148Z,5.32
2023-05-02T20:50:28.795Z,4.82
2023-05-02T20:52:55.507Z,4.22
2023-05-02T20:55:23.081Z,8.60
2023-05-02T20:57:53.076Z,6.03
2023-05-02T21:00:22.742Z,7.22
2023-05-02T21:02:49.846Z,6.53
2023-05-02T21:05:16.663Z,7.13
2023-05-02T21:07:44.714Z,10.40
2023-05-02T21:10:11.369Z,6.85
2023-05-02T21:12:37.972Z,6.47
2023-05-02T21:15:05.140Z,7.45
2023-05-02T21:17:31.801Z,6.70
2023-05-02T21:19:58.376Z,6.10
2023-05-02T21:22:25.341Z,8.00
2023-05-02T21:24:51.923Z,8.07
2023-05-02T21:27:18.537Z,8.55
2023-05-02T21:29:45.117Z,8.57
2023-05-02T21:32:11.662Z,8.82
2023-05-02T21:34:38.388Z,7.85
2023-05-02T21:37:04.971Z,7.88
2023-05-02T21:39:31.522Z,5.10
2023-05-02T21:41:58.112Z,9.73
2023-05-02T21:44:24.888Z,7.72
2023-05-02T21:46:51.618Z,8.05
2023-05-02T21:49:18.212Z,7.80
2023-05-02T21:51:44.826Z,9.57
2023-05-02T21:54:11.656Z,12.70
2023-05-02T21:56:38.189Z,9.35
2023-05-02T21:59:04.713Z,9.75
2023-05-02T22:01:31.323Z,11.63
2023-05-02T22:03:58.178Z,11.02
2023-05-02T22:06:25.220Z,7.60
2023-05-02T22:08:52.254Z,10.27
2023-05-02T22:11:21.637Z,14.60
2023-05-02T22:13:48.556Z,10.30
2023-05-02T22:16:15.481Z,10.20
2023-05-02T22:18:44.670Z,9.88
2023-05-02T22:21:12.218Z,12.80
2023-05-02T22:23:39.036Z,9.82
2023-05-02T22:26:05.608Z,10.85
2023-05-02T22:28:32.159Z,10.48
2023-05-02T22:30:58.743Z,12.70
2023-05-02T22:33:25.374Z,11.07
2023-05-02T22:35:51.943Z,14.90
2023-05-02T22:38:20.029Z,10.93
2023-05-02T22:40:46.695Z,11.48
2023-05-02T22:43:13.366Z,10.52
2023-05-02T22:45:40.717Z,10.50
2023-05-02T22:48:07.708Z,11.02
2023-05-02T22:50:34.414Z,7.55
2023-05-02T22:53:04.018Z,13.20
2023-05-02T22:55:30.944Z,10.35
2023-05-02T22:57:58.081Z,12.57
2023-05-02T23:00:25.049Z,9.98
2023-05-02T23:02:51.881Z,10.55
2023-05-02T23:05:18.858Z,13.13
2023-05-02T23:07:45.655Z,13.23
2023-05-02T23:10:12.164Z,10.30
2023-05-02T23:12:38.861Z,11.52
2023-05-02T23:15:06.489Z,11.90
2023-05-02T23:17:33.048Z,11.63
2023-05-02T23:19:59.879Z,10.75
2023-05-02T23:22:26.562Z,11.07
2023-05-02T23:24:53.091Z,14.18
2023-05-02T23:27:19.810Z,8.27
2023-05-02T23:29:48.947Z,13.52
2023-05-02T23:32:16.596Z,12.48
2023-05-02T23:34:43.498Z,12.35
2023-05-02T23:37:11.531Z,10.73
2023-05-02T23:39:38.394Z,13.23
2023-05-02T23:42:05.107Z,12.73
2023-05-02T23:44:31.704Z,10.48
2023-05-02T23:47:01.531Z,18.23
2023-05-02T23:49:28.283Z,18.42
2023-05-02T23:51:54.830Z,14.10
2023-05-02T23:54:21.364Z,10.77
2023-05-02T23:56:48.047Z,16.48
2023-05-02T23:59:15.264Z,13.57
